createdAt,value
2018-09-05T00:01:33.463Z,21.57
2018-09-05T00:04:01.221Z,22.03
2018-09-05T00:06:32.741Z,23.93
2018-09-05T00:09:00.449Z,24.43
2018-09-05T00:11:28.120Z,22.03
2018-09-05T00:13:55.943Z,26.87
2018-09-05T00:16:23.656Z,25.43
2018-09-05T00:18:51.397Z,22.27
2018-09-05T00:21:19.066Z,24.13
2018-09-05T00:23:46.894Z,23.00
2018-09-05T00:26:14.561Z,22.93
2018-09-05T00:28:42.403Z,23.33
2018-09-05T00:31:10.982Z,23.43
2018-09-05T00:33:40.044Z,23.13
2018-09-05T00:36:08.058Z,22.17
2018-09-05T00:38:36.033Z,23.47
2018-09-05T00:41:03.708Z,24.43
2018-09-05T00:43:31.401Z,23.63
2018-09-05T00:45:59.073Z,23.50
2018-09-05T00:48:26.745Z,22.30
2018-09-05T00:50:54.428Z,26.20
2018-09-05T00:53:22.218Z,22.33
2018-09-05T00:55:49.898Z,21.03
2018-09-05T00:58:17.561Z,20.80
2018-09-05T01:00:45.313Z,23.63
2018-09-05T01:03:13.010Z,23.63
2018-09-05T01:05:41.610Z,22.27
2018-09-05T01:08:09.286Z,21.53
2018-09-05T01:10:36.978Z,22.57
2018-09-05T01:13:04.802Z,23.37
2018-09-05T01:15:32.553Z,23.30
2018-09-05T01:18:00.219Z,23.97
2018-09-05T01:20:27.907Z,26.33
2018-09-05T01:22:55.666Z,28.07
2018-09-05T01:25:23.399Z,25.00
2018-09-05T01:27:52.978Z,28.60
2018-09-05T01:30:20.771Z,25.57
2018-09-05T01:32:49.017Z,26.37
2018-09-05T01:35:16.711Z,26.23
2018-09-05T01:37:44.589Z,26.27
2018-09-05T01:40:12.371Z,26.20
2018-09-05T01:42:40.101Z,26.00
2018-09-05T01:45:07.866Z,28.23
2018-09-05T01:47:35.530Z,33.57
2018-09-05T01:50:03.281Z,30.03
2018-09-05T01:52:30.947Z,27.73
2018-09-05T01:54:59.333Z,26.10
2018-09-05T01:57:27.201Z,27.00
2018-09-05T01:59:54.889Z,27.50
2018-09-05T02:02:24.203Z,28.73
2018-09-05T02:04:53.110Z,28.30
2018-09-05T02:07:20.874Z,30.70
2018-09-05T02:09:48.807Z,27.70
2018-09-05T02:12:17.175Z,26.07
2018-09-05T02:14:44.929Z,27.90
2018-09-05T02:17:12.609Z,25.50
2018-09-05T02:19:40.315Z,26.80
2018-09-05T02:22:07.979Z,26.53
2018-09-05T02:24:56.033Z,27.87
2018-09-05T02:27:23.718Z,27.47
2018-09-05T02:29:52.323Z,26.53
2018-09-05T02:32:20.972Z,28.60
2018-09-05T02:34:48.726Z,26.57
2018-09-05T02:37:16.369Z,25.87
2018-09-05T02:39:44.053Z,25.10
2018-09-05T02:42:11.870Z,26.93
2018-09-05T02:44:39.529Z,28.23
2018-09-05T02:47:07.221Z,26.63
2018-09-05T02:49:34.987Z,28.73
2018-09-05T02:52:02.709Z,28.70
2018-09-05T02:54:30.391Z,26.60
2018-09-05T02:56:58.177Z,27.23
2018-09-05T03:02:25.241Z,28.50
2018-09-05T03:04:52.966Z,26.93
2018-09-05T03:07:20.650Z,26.47
2018-09-05T03:09:48.415Z,26.03
2018-09-05T03:12:19.821Z,25.97
2018-09-05T03:14:48.235Z,25.67
2018-09-05T03:17:15.934Z,27.53
2018-09-05T03:19:43.601Z,26.37
2018-09-05T03:22:11.271Z,26.73
2018-09-05T03:24:39.055Z,26.03
2018-09-05T03:27:06.799Z,26.43
2018-09-05T03:29:34.521Z,27.93
2018-09-05T03:32:02.273Z,27.53
2018-09-05T03:34:29.986Z,26.20
2018-09-05T03:36:57.778Z,26.53
2018-09-05T03:39:25.742Z,28.40
2018-09-05T03:41:54.119Z,28.20
2018-09-05T03:44:21.807Z,26.97
2018-09-05T03:46:49.541Z,27.20
2018-09-05T03:49:17.562Z,26.23
2018-09-05T03:51:45.289Z,26.67
2018-09-05T03:54:12.966Z,25.70
2018-09-05T03:56:41.268Z,30.40
2018-09-05T03:59:08.957Z,27.13
2018-09-05T04:01:36.666Z,28.27
2018-09-05T04:04:04.455Z,28.57
2018-09-05T04:06:32.146Z,26.30
2018-09-05T04:08:59.818Z,27.63
2018-09-05T04:11:27.658Z,27.83
2018-09-05T04:13:55.341Z,28.37
2018-09-05T04:16:23.057Z,27.60
2018-09-05T04:18:50.798Z,30.73
2018-09-05T04:21:18.514Z,30.30
2018-09-05T04:23:47.324Z,29.37
2018-09-05T04:26:16.240Z,30.93
2018-09-05T04:28:44.262Z,29.83
2018-09-05T04:31:13.914Z,32.27
2018-09-05T04:33:41.633Z,31.70
2018-09-05T04:36:11.384Z,31.67
2018-09-05T04:38:39.345Z,31.00
2018-09-05T04:41:07.037Z,33.97
2018-09-05T04:43:34.994Z,32.13
2018-09-05T04:46:02.988Z,32.80
2018-09-05T04:48:30.691Z,31.63
2018-09-05T04:50:58.408Z,32.70
2018-09-05T04:53:26.110Z,32.67
2018-09-05T04:55:53.950Z,31.47
2018-09-05T04:58:22.547Z,34.80
2018-09-05T05:00:51.174Z,32.40
2018-09-05T05:03:19.121Z,34.20
2018-09-05T05:05:47.343Z,31.93
2018-09-05T05:08:15.138Z,32.40
2018-09-05T05:10:43.171Z,32.03
2018-09-05T05:13:10.882Z,29.17
2018-09-05T05:15:38.677Z,29.90
2018-09-05T05:18:06.370Z,30.00
2018-09-05T05:20:34.054Z,30.53
2018-09-05T05:23:01.782Z,34.50
2018-09-05T05:25:29.530Z,30.93
2018-09-05T05:27:57.275Z,31.10
2018-09-05T05:30:24.950Z,34.57
2018-09-05T05:32:52.703Z,31.10
2018-09-05T05:35:20.959Z,30.73
2018-09-05T05:37:48.737Z,30.30
2018-09-05T05:40:16.519Z,32.17
2018-09-05T05:42:44.257Z,29.40
2018-09-05T05:45:11.950Z,30.90
2018-09-05T05:47:40.005Z,37.87
2018-09-05T05:50:07.708Z,64.93
2018-09-05T05:52:35.410Z,41.50
2018-09-05T05:55:03.180Z,33.37
2018-09-05T05:57:30.887Z,30.03
2018-09-05T06:00:01.514Z,30.30
2018-09-05T06:02:29.214Z,30.73
2018-09-05T06:04:56.893Z,30.77
2018-09-05T06:07:24.657Z,27.87
2018-09-05T06:09:52.383Z,29.03
2018-09-05T06:12:20.091Z,33.20
2018-09-05T06:14:47.779Z,30.97
2018-09-05T06:17:15.846Z,32.40
2018-09-05T06:19:43.549Z,29.43
2018-09-05T06:22:11.286Z,29.17
2018-09-05T06:24:39.029Z,30.87
2018-09-05T06:27:06.693Z,53.70
2018-09-05T06:29:34.379Z,33.50
2018-09-05T06:32:02.054Z,42.30
2018-09-05T06:34:30.037Z,32.57
2018-09-05T06:36:57.918Z,32.10
2018-09-05T06:39:25.870Z,29.43
2018-09-05T06:41:53.567Z,32.70
2018-09-05T06:44:21.286Z,29.50
2018-09-05T06:46:49.005Z,29.97
2018-09-05T06:49:16.701Z,29.63
2018-09-05T06:51:44.590Z,30.90
2018-09-05T06:54:12.312Z,34.00
2018-09-05T06:56:40.004Z,26.90
2018-09-05T06:59:07.697Z,119.00
2018-09-05T07:01:35.461Z,38.77
2018-09-05T07:04:03.290Z,32.70
2018-09-05T07:06:30.902Z,31.43
2018-09-05T07:08:58.814Z,35.80
2018-09-05T07:11:26.669Z,36.40
2018-09-05T07:13:54.369Z,31.70
2018-09-05T07:16:22.022Z,30.17
2018-09-05T07:18:49.786Z,33.07
2018-09-05T07:21:17.586Z,28.50
2018-09-05T07:23:45.427Z,30.67
2018-09-05T07:26:13.087Z,31.63
2018-09-05T07:28:40.795Z,44.63
2018-09-05T07:31:08.477Z,32.03
2018-09-05T07:33:36.221Z,30.73
2018-09-05T07:36:03.958Z,30.93
2018-09-05T07:38:31.646Z,31.30
2018-09-05T07:40:59.494Z,28.27
2018-09-05T07:43:27.273Z,31.93
2018-09-05T07:45:54.950Z,36.70
2018-09-05T07:48:22.685Z,32.87
2018-09-05T07:50:50.385Z,27.97
2018-09-05T07:53:21.130Z,31.50
2018-09-05T07:55:49.078Z,33.07
2018-09-05T07:58:16.765Z,38.30
2018-09-05T08:00:44.414Z,36.90
2018-09-05T08:03:12.369Z,32.33
2018-09-05T08:05:40.018Z,38.30
2018-09-05T08:08:07.654Z,35.40
2018-09-05T08:10:35.330Z,37.30
2018-09-05T08:13:03.034Z,34.00
2018-09-05T08:15:30.713Z,35.93
2018-09-05T08:17:58.506Z,31.07
2018-09-05T08:20:30.911Z,34.63
2018-09-05T08:22:58.666Z,33.10
2018-09-05T08:25:26.318Z,30.30
2018-09-05T08:27:53.974Z,33.43
2018-09-05T08:30:22.727Z,32.93
2018-09-05T08:32:50.737Z,32.90
2018-09-05T08:35:18.606Z,33.87
2018-09-05T08:37:46.151Z,34.43
2018-09-05T08:40:13.925Z,34.50
2018-09-05T08:42:41.620Z,33.07
2018-09-05T08:45:09.497Z,31.13
2018-09-05T08:47:36.990Z,32.63
2018-09-05T08:50:04.913Z,30.33
2018-09-05T08:52:32.492Z,45.77
2018-09-05T08:55:00.807Z,32.40
2018-09-05T08:57:28.874Z,27.80
2018-09-05T08:59:56.525Z,28.47
2018-09-05T09:02:24.818Z,25.00
2018-09-05T09:04:52.603Z,27.67
2018-09-05T09:07:20.753Z,28.13
2018-09-05T09:09:48.419Z,30.03
2018-09-05T09:12:16.113Z,25.70
2018-09-05T09:14:43.786Z,24.47
2018-09-05T09:17:12.017Z,23.23
2018-09-05T09:19:39.733Z,28.43
2018-09-05T09:22:07.411Z,22.47
2018-09-05T09:24:35.154Z,21.93
2018-09-05T09:27:03.357Z,22.37
2018-09-05T09:29:31.019Z,20.93
2018-09-05T09:31:58.657Z,23.03
2018-09-05T09:34:26.314Z,21.23
2018-09-05T09:36:54.357Z,18.33
2018-09-05T09:39:22.994Z,23.93
2018-09-05T09:41:51.315Z,25.33
2018-09-05T09:44:19.285Z,22.43
2018-09-05T09:46:47.090Z,32.40
2018-09-05T09:49:15.792Z,23.67
2018-09-05T09:51:43.462Z,21.23
2018-09-05T09:54:11.104Z,39.30
2018-09-05T09:56:38.839Z,45.93
2018-09-05T09:59:06.438Z,20.03
2018-09-05T10:01:39.638Z,24.27
2018-09-05T10:06:16.425Z,20.60
2018-09-05T10:08:49.545Z,20.77
2018-09-05T10:11:18.062Z,18.00
2018-09-05T10:14:55.273Z,20.03
2018-09-05T10:17:28.657Z,16.97
2018-09-05T10:19:57.641Z,17.07
2018-09-05T10:24:54.838Z,16.97
2018-09-05T10:29:48.649Z,17.77
2018-09-05T10:32:16.314Z,15.53
2018-09-05T10:34:44.038Z,17.10
2018-09-05T10:37:12.524Z,14.43
2018-09-05T10:39:40.173Z,16.97
2018-09-05T10:42:07.957Z,18.17
2018-09-05T10:44:35.625Z,16.30
2018-09-05T10:47:03.450Z,15.67
2018-09-05T10:49:32.668Z,15.47
2018-09-05T10:52:04.306Z,17.73
2018-09-05T10:54:32.046Z,16.27
2018-09-05T10:57:00.973Z,22.47
2018-09-05T10:59:28.664Z,17.70
2018-09-05T11:01:56.576Z,16.00
2018-09-05T11:04:24.366Z,18.80
2018-09-05T11:06:52.046Z,16.90
2018-09-05T11:09:19.780Z,16.83
2018-09-05T11:11:49.353Z,17.00
2018-09-05T11:14:17.013Z,17.23
2018-09-05T11:16:44.686Z,16.03
2018-09-05T11:19:12.321Z,16.40
2018-09-05T11:21:40.021Z,18.27
2018-09-05T11:24:08.318Z,17.30
2018-09-05T11:26:36.754Z,17.37
2018-09-05T11:29:04.590Z,15.17
2018-09-05T11:31:32.228Z,18.53
2018-09-05T11:33:59.870Z,16.77
2018-09-05T11:36:27.604Z,14.63
2018-09-05T11:38:55.291Z,14.73
2018-09-05T11:41:23.152Z,18.57
2018-09-05T11:43:51.960Z,16.87
2018-09-05T11:46:21.613Z,18.03
2018-09-05T11:48:49.566Z,18.10
2018-09-05T11:51:17.185Z,19.03
2018-09-05T11:53:44.940Z,18.67
2018-09-05T11:56:12.938Z,20.30
2018-09-05T11:58:40.653Z,20.37
2018-09-05T12:01:08.431Z,17.30
2018-09-05T12:03:36.090Z,16.80
2018-09-05T12:06:03.774Z,14.57
2018-09-05T12:08:31.458Z,15.77
2018-09-05T12:10:59.133Z,14.57
2018-09-05T12:13:26.945Z,14.13
2018-09-05T12:15:54.630Z,14.53
2018-09-05T12:18:23.280Z,13.00
2018-09-05T12:20:51.874Z,13.17
2018-09-05T12:23:19.538Z,13.33
2018-09-05T12:25:47.249Z,13.57
2018-09-05T12:28:14.929Z,16.63
2018-09-05T12:30:42.577Z,16.23
2018-09-05T12:33:10.325Z,15.23
2018-09-05T12:35:38.446Z,17.30
2018-09-05T12:38:06.132Z,16.53
2018-09-05T12:40:33.821Z,15.73
2018-09-05T12:43:01.712Z,18.43
2018-09-05T12:45:29.350Z,18.33
2018-09-05T12:47:57.006Z,18.30
2018-09-05T12:50:24.647Z,19.80
2018-09-05T12:52:52.750Z,18.83
2018-09-05T12:55:20.912Z,21.50
2018-09-05T12:57:48.575Z,23.13
2018-09-05T13:00:17.110Z,22.07
2018-09-05T13:02:44.802Z,21.80
2018-09-05T13:05:13.039Z,16.40
2018-09-05T13:07:40.733Z,17.03
2018-09-05T13:10:08.429Z,21.17
2018-09-05T13:12:36.425Z,16.73
2018-09-05T13:15:04.124Z,17.53
2018-09-05T13:17:31.773Z,17.50
2018-09-05T13:19:59.549Z,24.20
2018-09-05T13:22:57.794Z,15.10
2018-09-05T13:25:25.494Z,19.37
2018-09-05T13:27:53.195Z,15.15
2018-09-05T13:30:20.817Z,17.02
2018-09-05T13:32:48.486Z,15.75
2018-09-05T13:35:16.203Z,15.58
2018-09-05T13:37:43.907Z,19.35
2018-09-05T13:40:11.578Z,16.25
2018-09-05T13:42:39.218Z,15.70
2018-09-05T13:45:06.919Z,13.45
2018-09-05T13:47:34.525Z,15.15
2018-09-05T13:50:02.762Z,16.17
2018-09-05T13:52:30.474Z,20.15
2018-09-05T13:54:58.174Z,13.98
2018-09-05T13:57:25.793Z,13.22
2018-09-05T13:59:53.473Z,12.90
2018-09-05T14:02:21.110Z,12.10
2018-09-05T14:04:48.810Z,13.50
2018-09-05T14:07:16.434Z,12.33
2018-09-05T14:09:44.105Z,12.60
2018-09-05T14:12:11.762Z,12.03
2018-09-05T14:14:39.414Z,12.85
2018-09-05T14:17:07.207Z,12.88
2018-09-05T14:19:34.858Z,12.18
2018-09-05T14:22:02.573Z,12.58
2018-09-05T14:24:30.329Z,11.10
2018-09-05T14:26:58.065Z,12.95
2018-09-05T14:29:25.729Z,12.78
2018-09-05T14:31:53.389Z,11.22
2018-09-05T14:34:21.115Z,10.30
2018-09-05T14:36:48.949Z,12.35
2018-09-05T14:39:16.717Z,12.95
2018-09-05T14:41:44.350Z,12.47
2018-09-05T14:44:12.246Z,10.43
2018-09-05T14:46:40.066Z,10.28
2018-09-05T14:49:07.750Z,10.45
2018-09-05T14:51:35.470Z,10.93
2018-09-05T14:54:03.148Z,12.28
2018-09-05T14:56:30.815Z,13.72
2018-09-05T14:58:58.491Z,12.28
2018-09-05T15:01:26.153Z,12.05
2018-09-05T15:03:53.889Z,17.48
2018-09-05T15:06:21.982Z,15.18
2018-09-05T15:08:49.623Z,13.70
2018-09-05T15:11:17.443Z,11.73
2018-09-05T15:13:45.105Z,10.90
2018-09-05T15:16:12.831Z,15.03
2018-09-05T15:18:40.478Z,12.77
2018-09-05T15:21:08.365Z,11.43
2018-09-05T15:23:36.920Z,12.40
2018-09-05T15:26:04.782Z,11.67
2018-09-05T15:28:32.458Z,12.50
2018-09-05T15:31:00.141Z,12.57
2018-09-05T15:33:28.538Z,12.00
2018-09-05T15:35:57.262Z,14.90
2018-09-05T15:38:25.270Z,12.80
2018-09-05T15:40:52.954Z,12.23
2018-09-05T15:43:20.606Z,11.93
2018-09-05T15:45:48.298Z,12.40
2018-09-05T15:48:15.939Z,11.53
2018-09-05T15:50:43.626Z,11.13
2018-09-05T15:53:11.294Z,14.07
2018-09-05T15:55:39.355Z,15.23
2018-09-05T15:58:07.488Z,12.70
2018-09-05T16:00:35.160Z,11.53
2018-09-05T16:03:02.814Z,11.00
2018-09-05T16:05:30.917Z,10.23
2018-09-05T16:07:58.561Z,11.07
2018-09-05T16:10:26.245Z,10.90
2018-09-05T16:12:53.997Z,11.33
2018-09-05T16:15:21.868Z,11.13
2018-09-05T16:17:49.505Z,12.43
2018-09-05T16:20:17.681Z,16.00
2018-09-05T16:22:45.345Z,16.17
2018-09-05T16:25:13.066Z,19.20
2018-09-05T16:27:40.790Z,20.87
2018-09-05T16:30:09.222Z,22.40
2018-09-05T16:32:36.845Z,19.10
2018-09-05T16:35:05.647Z,18.90
2018-09-05T16:37:33.373Z,21.50
2018-09-05T16:40:01.046Z,19.80
2018-09-05T16:42:28.677Z,21.17
2018-09-05T16:44:56.413Z,22.97
2018-09-05T16:47:24.106Z,24.37
2018-09-05T16:49:51.890Z,26.73
2018-09-05T16:52:19.639Z,31.03
2018-09-05T16:54:47.369Z,27.93
2018-09-05T16:57:14.970Z,99.10
2018-09-05T16:59:43.194Z,32.27
2018-09-05T17:02:11.174Z,33.17
2018-09-05T17:04:38.834Z,37.77
2018-09-05T17:07:06.545Z,33.50
2018-09-05T17:09:34.197Z,29.30
2018-09-05T17:12:02.154Z,24.87
2018-09-05T17:14:30.770Z,32.87
2018-09-05T17:16:59.241Z,25.67
2018-09-05T17:19:26.881Z,22.17
2018-09-05T17:21:54.546Z,21.67
2018-09-05T17:24:22.342Z,32.73
2018-09-05T17:26:49.994Z,32.83
2018-09-05T17:29:18.071Z,27.37
2018-09-05T17:31:45.757Z,28.10
2018-09-05T17:34:13.486Z,31.90
2018-09-05T17:36:41.153Z,29.07
2018-09-05T17:39:10.085Z,28.27
2018-09-05T17:41:37.901Z,27.30
2018-09-05T17:44:05.913Z,26.63
2018-09-05T17:46:33.662Z,25.10
2018-09-05T17:49:01.514Z,89.13
2018-09-05T17:51:29.266Z,81.10
2018-09-05T17:53:56.918Z,43.10
2018-09-05T17:56:24.854Z,33.23
2018-09-05T17:58:52.645Z,29.83
2018-09-05T18:01:22.032Z,31.80
2018-09-05T18:03:49.741Z,33.07
2018-09-05T18:06:17.746Z,29.70
2018-09-05T18:08:45.406Z,27.63
2018-09-05T18:11:13.394Z,29.73
2018-09-05T18:13:41.054Z,28.87
2018-09-05T18:16:08.721Z,31.30
2018-09-05T18:18:36.428Z,31.83
2018-09-05T18:21:04.281Z,31.67
2018-09-05T18:23:31.913Z,31.30
2018-09-05T18:25:59.577Z,32.87
2018-09-05T18:28:27.193Z,31.47
2018-09-05T18:30:54.879Z,35.20
2018-09-05T18:33:22.652Z,34.10
2018-09-05T18:35:50.330Z,35.47
2018-09-05T18:38:18.177Z,33.60
2018-09-05T18:40:49.370Z,36.27
2018-09-05T18:43:17.077Z,33.57
2018-09-05T18:45:44.746Z,81.30
2018-09-05T18:48:12.565Z,51.40
2018-09-05T18:50:40.410Z,36.13
2018-09-05T18:53:11.021Z,29.07
2018-09-05T18:55:39.654Z,29.00
2018-09-05T18:58:07.374Z,29.30
2018-09-05T19:00:35.412Z,25.53
2018-09-05T19:03:03.613Z,25.57
2018-09-05T19:05:31.654Z,25.87
2018-09-05T19:07:59.350Z,22.60
2018-09-05T19:10:27.333Z,24.03
2018-09-05T19:12:55.486Z,24.40
2018-09-05T19:15:23.319Z,22.20
2018-09-05T19:17:51.013Z,21.77
2018-09-05T19:20:18.689Z,21.47
2018-09-05T19:22:46.646Z,20.53
2018-09-05T19:25:14.949Z,20.93
2018-09-05T19:27:42.682Z,27.80
2018-09-05T19:30:10.974Z,30.67
2018-09-05T19:32:38.649Z,24.73
2018-09-05T19:35:06.357Z,28.40
2018-09-05T19:37:35.290Z,25.03
2018-09-05T19:40:03.034Z,23.67
2018-09-05T19:42:30.817Z,24.23
2018-09-05T19:44:58.493Z,22.83
2018-09-05T19:47:26.233Z,27.63
2018-09-05T19:49:53.921Z,26.27
2018-09-05T19:52:21.662Z,26.07
2018-09-05T19:54:49.347Z,26.13
2018-09-05T19:57:17.149Z,28.27
2018-09-05T19:59:44.825Z,31.17
2018-09-05T20:02:12.552Z,29.80
2018-09-05T20:04:40.241Z,40.63
2018-09-05T20:07:07.923Z,39.17
2018-09-05T20:09:36.565Z,33.97
2018-09-05T20:12:04.282Z,33.53
2018-09-05T20:14:32.583Z,30.50
2018-09-05T20:17:00.205Z,33.23
2018-09-05T20:19:27.871Z,32.27
2018-09-05T20:21:55.545Z,32.10
2018-09-05T20:24:23.225Z,37.03
2018-09-05T20:26:53.049Z,34.77
2018-09-05T20:29:23.685Z,34.17
2018-09-05T20:31:51.391Z,33.10
2018-09-05T20:34:19.214Z,35.47
2018-09-05T20:36:47.039Z,36.90
2018-09-05T20:39:14.897Z,37.03
2018-09-05T20:41:42.602Z,35.37
2018-09-05T20:44:10.434Z,36.37
2018-09-05T20:46:38.413Z,36.33
2018-09-05T20:49:06.089Z,37.47
2018-09-05T20:51:33.838Z,36.17
2018-09-05T20:54:01.669Z,34.40
2018-09-05T20:56:29.365Z,29.00
2018-09-05T20:58:57.097Z,27.27
2018-09-05T21:01:24.914Z,25.30
2018-09-05T21:03:52.593Z,25.40
2018-09-05T21:06:20.606Z,24.13
2018-09-05T21:08:48.281Z,24.03
2018-09-05T21:11:16.094Z,24.37
2018-09-05T21:13:43.753Z,21.47
2018-09-05T21:16:11.501Z,21.70
2018-09-05T21:18:39.173Z,20.63
2018-09-05T21:21:06.895Z,21.50
2018-09-05T21:23:34.569Z,23.27
2018-09-05T21:26:02.266Z,28.87
2018-09-05T21:28:30.106Z,28.50
2018-09-05T21:30:57.943Z,26.03
2018-09-05T21:33:25.669Z,32.40
2018-09-05T21:35:53.350Z,33.43
2018-09-05T21:38:21.177Z,38.47
2018-09-05T21:40:48.854Z,32.13
2018-09-05T21:43:16.539Z,37.40
2018-09-05T21:45:44.269Z,35.60
2018-09-05T21:48:12.083Z,36.47
2018-09-05T21:50:39.781Z,41.63
2018-09-05T21:53:07.481Z,44.07
2018-09-05T21:55:35.299Z,48.43
2018-09-05T21:58:02.987Z,55.43
2018-09-05T22:00:30.982Z,56.13
2018-09-05T22:02:58.653Z,58.97
2018-09-05T22:05:26.477Z,55.50
2018-09-05T22:07:54.169Z,54.17
2018-09-05T22:10:22.404Z,59.03
2018-09-05T22:12:50.359Z,58.97
2018-09-05T22:15:18.026Z,54.17
2018-09-05T22:17:45.794Z,51.03
2018-09-05T22:20:13.499Z,53.93
2018-09-05T22:22:41.249Z,54.30
2018-09-05T22:25:08.906Z,51.53
2018-09-05T22:27:36.670Z,62.10
2018-09-05T22:30:04.453Z,62.63
2018-09-05T22:32:32.302Z,66.23
2018-09-05T22:35:00.083Z,68.27
2018-09-05T22:37:27.782Z,69.37
2018-09-05T22:39:55.435Z,64.70
2018-09-05T22:42:23.157Z,73.00
2018-09-05T22:45:02.063Z,71.30
2018-09-05T22:47:41.113Z,65.33
2018-09-05T22:54:37.407Z,69.30
2018-09-05T22:57:21.963Z,73.93
2018-09-05T23:00:00.451Z,73.13
2018-09-05T23:02:46.320Z,74.87
2018-09-05T23:07:25.235Z,76.03
2018-09-05T23:10:04.224Z,77.00
2018-09-05T23:12:43.582Z,78.73
2018-09-05T23:15:22.426Z,76.40
2018-09-05T23:20:04.329Z,80.47
2018-09-05T23:22:43.178Z,78.57
2018-09-05T23:25:10.917Z,74.43
2018-09-05T23:27:38.823Z,65.03
2018-09-05T23:30:06.667Z,70.07
2018-09-05T23:32:34.378Z,68.37
2018-09-05T23:35:02.107Z,69.43
2018-09-05T23:37:29.801Z,67.40
2018-09-05T23:39:57.580Z,68.73
2018-09-05T23:42:25.257Z,69.53
2018-09-05T23:44:53.113Z,71.27
2018-09-05T23:47:20.810Z,72.90
2018-09-05T23:49:48.530Z,73.87
2018-09-05T23:52:16.339Z,68.77
2018-09-05T23:54:44.075Z,66.93
2018-09-05T23:57:11.758Z,65.00
2018-09-05T23:59:39.619Z,69.50
